Paintersville, Pennsylvania
Current Conditions -  °F | °C
As of 1:53 PM on Friday 21 Nov 2014 (Local Time) from KUNV Reporting Station
Scattered Clouds Scattered Clouds  
Wind Chill: 17°   Ceiling: Unl
Heat Index: 28°   Visibility: 10mi
Dew Point:   Wind: 14mph
Humidity: 43%   Direction: 300°WNW
Pressure: 30.38"   Gusts: 21mph
Location:  40.6073°N, 77.5812°W
Report Text: KUNV 211853Z 30012G18KT 10SM SCT044 M02/M13 A3038
Loading
Personal Weather Stations






























Interactive Weather Map New forecast layout! Learn more

10-Day Weather Forecast

Advertisements
Track Severe Weather on mobile